createdAt,value
2019-01-23T00:01:20.337Z,-3.20
2019-01-23T00:11:11.598Z,-3.18
2019-01-23T00:33:18.839Z,-3.27
2019-01-23T00:43:12.294Z,-3.34
2019-01-23T00:59:59.125Z,-3.58
2019-01-23T01:12:57.667Z,-3.60
2019-01-23T01:43:12.439Z,-3.91
2019-01-23T01:57:00.957Z,-4.09
2019-01-23T02:07:18.280Z,-4.19
2019-01-23T02:10:10.946Z,-4.06
2019-01-23T02:15:56.158Z,-4.10
2019-01-23T02:22:56.636Z,-4.11
2019-01-23T02:32:21.017Z,-4.29
2019-01-23T02:34:49.918Z,-4.19
2019-01-23T02:37:18.736Z,-4.23
2019-01-23T02:39:47.634Z,-4.28
2019-01-23T02:42:16.956Z,-4.31
2019-01-23T02:44:45.808Z,-4.37
2019-01-23T02:47:14.631Z,-4.29
2019-01-23T02:49:43.667Z,-4.26
2019-01-23T02:52:12.801Z,-4.25
2019-01-23T02:54:41.649Z,-4.37
2019-01-23T02:57:10.823Z,-4.42
2019-01-23T02:59:39.649Z,-4.38
2019-01-23T03:02:08.587Z,-4.45
2019-01-23T03:04:37.370Z,-4.43
2019-01-23T03:07:06.258Z,-4.43
2019-01-23T03:09:35.255Z,-4.46
2019-01-23T03:12:04.205Z,-4.48
2019-01-23T03:14:33.042Z,-4.37
2019-01-23T03:17:02.022Z,-4.54
2019-01-23T03:19:30.903Z,-4.52
2019-01-23T03:21:59.788Z,-4.44
2019-01-23T03:24:28.706Z,-4.54
2019-01-23T03:26:57.615Z,-4.62
2019-01-23T03:29:26.425Z,-4.52
2019-01-23T03:31:55.222Z,-4.51
2019-01-23T03:34:24.099Z,-4.59
2019-01-23T03:36:53.443Z,-4.61
2019-01-23T03:39:22.615Z,-4.54
2019-01-23T03:41:51.374Z,-4.56
2019-01-23T03:44:20.232Z,-4.60
2019-01-23T03:46:49.148Z,-4.60
2019-01-23T03:49:17.924Z,-4.66
2019-01-23T03:51:46.734Z,-4.69
2019-01-23T03:54:15.538Z,-4.62
2019-01-23T03:56:44.628Z,-4.58
2019-01-23T03:59:13.614Z,-4.82
2019-01-23T04:01:42.418Z,-4.67
2019-01-23T04:04:11.309Z,-4.62
2019-01-23T04:06:40.465Z,-4.56
2019-01-23T04:09:09.347Z,-4.67
2019-01-23T04:11:38.261Z,-4.69
2019-01-23T04:14:07.163Z,-4.65
2019-01-23T04:16:35.959Z,-4.62
2019-01-23T04:19:04.932Z,-4.75
2019-01-23T04:21:33.864Z,-4.73
2019-01-23T04:24:02.702Z,-4.69
2019-01-23T04:26:31.755Z,-4.64
2019-01-23T04:29:00.557Z,-4.59
2019-01-23T04:31:29.723Z,-4.63
2019-01-23T04:33:58.486Z,-4.62
2019-01-23T04:36:27.693Z,-4.75
2019-01-23T04:38:56.468Z,-4.76
2019-01-23T04:41:26.078Z,-4.82
2019-01-23T04:43:55.172Z,-4.85
2019-01-23T04:46:24.205Z,-4.82
2019-01-23T04:48:53.459Z,-4.86
2019-01-23T04:51:41.669Z,-4.77
2019-01-23T04:54:14.353Z,-4.75
2019-01-23T04:56:43.509Z,-4.84
2019-01-23T04:59:12.394Z,-4.73
2019-01-23T05:01:41.196Z,-4.88
2019-01-23T05:04:10.001Z,-4.91
2019-01-23T05:06:39.098Z,-4.95
2019-01-23T05:09:09.316Z,-4.92
2019-01-23T05:11:38.272Z,-4.89
2019-01-23T05:14:07.239Z,-4.92
2019-01-23T05:16:36.019Z,-4.92
2019-01-23T05:19:05.544Z,-4.94
2019-01-23T05:21:34.339Z,-4.98
2019-01-23T05:24:03.152Z,-4.98
2019-01-23T05:26:32.030Z,-4.88
2019-01-23T05:29:00.812Z,-4.90
2019-01-23T05:31:29.833Z,-4.99
2019-01-23T05:33:58.630Z,-4.98
2019-01-23T05:36:27.467Z,-4.97
2019-01-23T05:38:56.262Z,-5.04
2019-01-23T05:41:25.048Z,-5.00
2019-01-23T05:43:53.840Z,-4.97
2019-01-23T05:46:23.040Z,-5.02
2019-01-23T05:48:52.084Z,-5.09
2019-01-23T05:51:20.963Z,-4.94
2019-01-23T05:53:49.838Z,-5.16
2019-01-23T05:56:18.876Z,-5.14
2019-01-23T05:58:47.758Z,-5.00
2019-01-23T06:01:16.641Z,-5.01
2019-01-23T06:03:45.521Z,-5.09
2019-01-23T06:06:14.367Z,-5.01
2019-01-23T06:08:43.540Z,-5.03
2019-01-23T06:11:12.370Z,-5.20
2019-01-23T06:13:41.256Z,-5.18
2019-01-23T06:16:10.026Z,-5.10
2019-01-23T06:18:38.897Z,-5.07
2019-01-23T06:21:07.706Z,-5.02
2019-01-23T06:23:36.613Z,-5.04
2019-01-23T06:26:05.614Z,-5.09
2019-01-23T06:28:34.438Z,-5.01
2019-01-23T06:31:03.602Z,-5.09
2019-01-23T06:33:32.431Z,-5.18
2019-01-23T06:36:01.373Z,-5.20
2019-01-23T06:38:30.344Z,-5.10
2019-01-23T06:40:59.189Z,-5.24
2019-01-23T06:43:27.975Z,-5.26
2019-01-23T06:45:57.143Z,-5.31
2019-01-23T06:48:26.302Z,-5.24
2019-01-23T06:50:55.107Z,-5.22
2019-01-23T06:53:24.319Z,-5.31
2019-01-23T06:55:53.094Z,-5.32
2019-01-23T06:58:22.275Z,-5.37
2019-01-23T07:00:51.508Z,-5.27
2019-01-23T07:03:20.375Z,-5.38
2019-01-23T07:05:49.261Z,-5.41
2019-01-23T07:08:18.119Z,-5.36
2019-01-23T07:10:47.170Z,-5.27
2019-01-23T07:13:15.991Z,-5.28
2019-01-23T07:15:44.759Z,-5.27
2019-01-23T07:18:14.016Z,-5.30
2019-01-23T07:20:43.001Z,-5.32
2019-01-23T07:23:12.022Z,-5.28
2019-01-23T07:25:40.834Z,-5.32
2019-01-23T07:28:09.957Z,-5.47
2019-01-23T07:30:41.255Z,-5.40
2019-01-23T07:33:10.107Z,-5.24
2019-01-23T07:35:38.977Z,-5.40
2019-01-23T07:38:07.890Z,-5.32
2019-01-23T07:40:36.734Z,-5.46
2019-01-23T07:43:05.727Z,-5.38
2019-01-23T07:45:34.646Z,-5.23
2019-01-23T07:48:03.875Z,-5.24
2019-01-23T07:50:32.748Z,-5.33
2019-01-23T07:53:01.773Z,-5.25
2019-01-23T07:55:30.926Z,-5.44
2019-01-23T07:57:59.750Z,-5.41
2019-01-23T08:00:31.625Z,-5.41
2019-01-23T08:02:59.809Z,-5.42
2019-01-23T08:05:28.693Z,-5.38
2019-01-23T08:07:57.887Z,-5.34
2019-01-23T08:10:27.172Z,-5.35
2019-01-23T08:12:56.164Z,-5.27
2019-01-23T08:15:30.932Z,-5.33
2019-01-23T08:17:59.850Z,-5.28
2019-01-23T08:20:29.449Z,-5.19
2019-01-23T08:22:58.807Z,-5.22
2019-01-23T08:25:27.801Z,-5.26
2019-01-23T08:27:57.142Z,-5.25
2019-01-23T08:30:26.904Z,-5.35
2019-01-23T08:32:55.909Z,-5.22
2019-01-23T08:35:25.827Z,-5.26
2019-01-23T08:37:55.106Z,-5.19
2019-01-23T08:40:24.071Z,-5.18
2019-01-23T08:42:53.109Z,-5.07
2019-01-23T08:45:22.287Z,-5.08
2019-01-23T08:47:51.503Z,-5.06
2019-01-23T08:50:34.854Z,-5.09
2019-01-23T08:53:03.702Z,-5.11
2019-01-23T08:55:32.520Z,-5.07
2019-01-23T08:58:01.515Z,-5.00
2019-01-23T09:00:30.506Z,-5.04
2019-01-23T09:02:59.350Z,-4.95
2019-01-23T09:05:28.237Z,-5.03
2019-01-23T09:07:57.467Z,-5.10
2019-01-23T09:10:26.836Z,-5.06
2019-01-23T09:12:56.499Z,-5.04
2019-01-23T09:15:25.464Z,-5.16
2019-01-23T09:17:54.709Z,-5.07
2019-01-23T09:20:23.810Z,-4.89
2019-01-23T09:22:52.952Z,-4.94
2019-01-23T09:25:23.518Z,-5.08
2019-01-23T09:27:52.458Z,-5.01
2019-01-23T09:30:31.620Z,-4.97
2019-01-23T09:33:31.753Z,-4.91
2019-01-23T09:36:26.238Z,-4.88
2019-01-23T09:39:32.446Z,-4.81
2019-01-23T09:42:44.879Z,-4.90
2019-01-23T09:45:40.007Z,-4.71
2019-01-23T09:48:29.519Z,-4.89
2019-01-23T09:51:45.522Z,-4.70
2019-01-23T09:54:15.924Z,-4.68
2019-01-23T09:56:47.656Z,-4.81
2019-01-23T09:59:16.485Z,-4.85
2019-01-23T10:01:45.271Z,-4.72
2019-01-23T10:04:14.053Z,-4.73
2019-01-23T10:06:43.357Z,-4.54
2019-01-23T10:09:12.491Z,-4.59
2019-01-23T10:11:41.448Z,-4.47
2019-01-23T10:14:10.246Z,-4.69
2019-01-23T10:16:39.056Z,-4.57
2019-01-23T10:19:07.984Z,-4.60
2019-01-23T10:21:37.159Z,-4.53
2019-01-23T10:24:06.615Z,-4.56
2019-01-23T10:26:35.566Z,-4.63
2019-01-23T10:29:04.508Z,-4.58
2019-01-23T10:31:33.306Z,-4.44
2019-01-23T10:34:02.154Z,-4.51
2019-01-23T10:36:31.098Z,-4.46
2019-01-23T10:38:59.894Z,-4.40
2019-01-23T10:41:28.822Z,-4.59
2019-01-23T10:43:57.766Z,-4.32
2019-01-23T10:46:26.657Z,-4.43
2019-01-23T10:48:55.518Z,-4.46
2019-01-23T10:51:24.685Z,-4.53
2019-01-23T10:53:53.748Z,-4.57
2019-01-23T10:56:22.701Z,-4.51
2019-01-23T10:58:51.563Z,-4.31
2019-01-23T11:01:20.791Z,-4.28
2019-01-23T11:03:49.952Z,-4.18
2019-01-23T11:06:19.063Z,-4.21
2019-01-23T11:08:47.900Z,-4.26
2019-01-23T11:11:16.684Z,-4.23
2019-01-23T11:13:45.504Z,-4.22
2019-01-23T11:16:14.686Z,-4.18
2019-01-23T11:18:43.595Z,-4.37
2019-01-23T11:21:12.566Z,-4.28
2019-01-23T11:23:41.420Z,-4.18
2019-01-23T11:26:10.363Z,-4.15
2019-01-23T11:28:39.452Z,-4.29
2019-01-23T11:31:08.268Z,-4.22
2019-01-23T11:33:37.117Z,-4.21
2019-01-23T11:36:06.066Z,-4.16
2019-01-23T11:38:34.879Z,-4.05
2019-01-23T11:41:03.815Z,-3.95
2019-01-23T11:43:32.948Z,-4.02
2019-01-23T11:46:01.993Z,-3.78
2019-01-23T11:48:30.816Z,-3.92
2019-01-23T11:50:59.629Z,-3.95
2019-01-23T11:53:28.783Z,-3.90
2019-01-23T11:55:57.687Z,-3.79
2019-01-23T11:58:26.543Z,-3.81
2019-01-23T12:00:55.776Z,-3.89
2019-01-23T12:03:24.861Z,-3.83
2019-01-23T12:05:53.760Z,-3.78
2019-01-23T12:08:22.885Z,-3.71
2019-01-23T12:10:51.799Z,-3.77
2019-01-23T12:13:20.779Z,-3.86
2019-01-23T12:15:49.577Z,-3.78
2019-01-23T12:18:18.686Z,-3.76
2019-01-23T12:20:47.523Z,-3.75
2019-01-23T12:23:16.374Z,-3.77
2019-01-23T12:25:45.282Z,-3.81
2019-01-23T12:28:14.134Z,-3.73
2019-01-23T12:30:43.797Z,-3.71
2019-01-23T12:33:12.702Z,-3.59
2019-01-23T12:35:41.833Z,-3.61
2019-01-23T12:38:10.727Z,-3.65
2019-01-23T12:40:39.726Z,-3.53
2019-01-23T12:43:08.696Z,-3.61
2019-01-23T12:45:37.675Z,-3.62
2019-01-23T12:48:06.678Z,-3.49
2019-01-23T12:50:35.652Z,-3.66
2019-01-23T12:53:04.552Z,-3.57
2019-01-23T12:55:33.618Z,-3.50
2019-01-23T12:58:02.684Z,-3.48
2019-01-23T13:00:31.908Z,-3.61
2019-01-23T13:03:01.113Z,-3.49
2019-01-23T13:05:30.464Z,-3.48
2019-01-23T13:07:59.611Z,-3.64
2019-01-23T13:10:29.195Z,-3.61
2019-01-23T13:12:58.222Z,-3.42
2019-01-23T13:15:27.764Z,-3.42
2019-01-23T13:17:57.039Z,-3.30
2019-01-23T13:20:26.482Z,-3.53
2019-01-23T13:22:55.584Z,-3.49
2019-01-23T13:25:26.155Z,-3.54
2019-01-23T13:27:55.582Z,-3.58
2019-01-23T13:30:25.706Z,-3.37
2019-01-23T13:32:55.007Z,-3.28
2019-01-23T13:35:26.618Z,-3.39
2019-01-23T13:37:55.911Z,-3.32
2019-01-23T13:40:27.448Z,-3.26
2019-01-23T13:42:56.432Z,-3.21
2019-01-23T13:45:25.347Z,-3.17
2019-01-23T13:47:54.216Z,-3.23
2019-01-23T13:50:23.138Z,-3.25
2019-01-23T13:52:52.004Z,-3.29
2019-01-23T13:55:21.319Z,-3.19
2019-01-23T13:57:50.453Z,-3.31
2019-01-23T14:00:24.906Z,-3.23
2019-01-23T14:02:54.589Z,-3.20
2019-01-23T14:05:23.476Z,-3.25
2019-01-23T14:07:52.358Z,-3.18
2019-01-23T14:10:21.570Z,-3.05
2019-01-23T14:12:50.864Z,-3.15
2019-01-23T14:15:22.742Z,-3.17
2019-01-23T14:17:51.979Z,-3.08
2019-01-23T14:20:20.947Z,-3.07
2019-01-23T14:22:49.820Z,-3.08
2019-01-23T14:25:19.038Z,-3.27
2019-01-23T14:27:48.408Z,-3.20
2019-01-23T14:30:23.384Z,-3.29
2019-01-23T14:32:52.253Z,-3.21
2019-01-23T14:35:21.254Z,-3.22
2019-01-23T14:37:50.279Z,-3.14
2019-01-23T14:40:19.468Z,-3.10
2019-01-23T14:42:48.501Z,-3.28
2019-01-23T14:45:18.443Z,-3.29
2019-01-23T14:47:47.681Z,-3.22
2019-01-23T14:50:16.962Z,-3.18
2019-01-23T14:52:47.511Z,-3.28
2019-01-23T14:55:16.952Z,-3.32
2019-01-23T14:57:45.998Z,-3.31
2019-01-23T15:00:19.956Z,-3.22
2019-01-23T15:02:48.835Z,-3.21
2019-01-23T15:05:17.814Z,-3.32
2019-01-23T15:07:46.751Z,-3.32
2019-01-23T15:10:21.064Z,-3.30
2019-01-23T15:12:49.950Z,-3.45
2019-01-23T15:15:19.075Z,-3.37
2019-01-23T15:17:48.130Z,-3.40
2019-01-23T15:20:19.966Z,-3.49
2019-01-23T15:22:48.724Z,-3.44
2019-01-23T15:25:17.705Z,-3.49
2019-01-23T15:27:46.508Z,-3.46
2019-01-23T15:30:16.626Z,-3.42
2019-01-23T15:32:45.494Z,-3.54
2019-01-23T15:35:14.623Z,-3.71
2019-01-23T15:37:43.462Z,-3.70
2019-01-23T15:40:15.265Z,-3.69
2019-01-23T15:42:44.523Z,-3.77
2019-01-23T15:45:13.500Z,-3.71
2019-01-23T15:47:42.391Z,-3.76
2019-01-23T15:50:14.024Z,-3.80
2019-01-23T15:52:43.081Z,-3.77
2019-01-23T15:55:13.368Z,-3.78
2019-01-23T15:57:42.357Z,-3.85
2019-01-23T16:00:18.639Z,-3.84
2019-01-23T16:02:48.670Z,-3.88
2019-01-23T16:05:17.667Z,-3.90
2019-01-23T16:07:46.913Z,-3.91
2019-01-23T16:10:18.002Z,-4.01
2019-01-23T16:12:47.081Z,-3.96
2019-01-23T16:15:19.643Z,-3.93
2019-01-23T16:17:48.541Z,-3.95
2019-01-23T16:20:17.467Z,-4.09
2019-01-23T16:26:32.778Z,-4.23
2019-01-23T16:29:01.602Z,-4.19
2019-01-23T16:31:30.383Z,-4.34
2019-01-23T16:33:59.557Z,-4.29
2019-01-23T16:36:28.472Z,-4.25
2019-01-23T16:38:57.320Z,-4.42
2019-01-23T16:41:26.560Z,-4.33
2019-01-23T16:43:55.455Z,-4.34
2019-01-23T16:46:24.429Z,-4.35
2019-01-23T16:48:53.479Z,-4.32
2019-01-23T16:51:22.294Z,-4.55
2019-01-23T16:53:51.123Z,-4.50
2019-01-23T16:56:20.151Z,-4.59
2019-01-23T16:58:49.381Z,-4.63
2019-01-23T17:01:18.572Z,-4.60
2019-01-23T17:03:47.780Z,-4.59
2019-01-23T17:06:16.764Z,-4.73
2019-01-23T17:08:45.557Z,-4.68
2019-01-23T17:11:14.363Z,-4.77
2019-01-23T17:13:43.207Z,-4.85
2019-01-23T17:16:12.966Z,-4.78
2019-01-23T17:18:41.875Z,-4.84
2019-01-23T17:21:13.148Z,-4.88
2019-01-23T17:23:42.105Z,-5.07
2019-01-23T17:26:11.000Z,-4.96
2019-01-23T17:28:40.466Z,-4.88
2019-01-23T17:31:09.392Z,-4.93
2019-01-23T17:33:38.363Z,-5.08
2019-01-23T17:36:07.401Z,-5.37
2019-01-23T17:38:36.177Z,-5.20
2019-01-23T17:41:05.226Z,-5.10
2019-01-23T17:43:35.140Z,-5.25
2019-01-23T17:46:03.991Z,-5.19
2019-01-23T17:48:32.924Z,-5.16
2019-01-23T17:51:01.754Z,-5.08
2019-01-23T17:53:30.560Z,-5.32
2019-01-23T17:55:59.379Z,-5.25
2019-01-23T17:58:28.378Z,-5.33
2019-01-23T18:00:58.805Z,-5.21
2019-01-23T18:03:28.229Z,-5.34
2019-01-23T18:05:57.434Z,-5.31
2019-01-23T18:08:26.357Z,-5.28
2019-01-23T18:10:55.412Z,-5.30
2019-01-23T18:13:30.061Z,-5.48
2019-01-23T18:16:17.525Z,-5.43
2019-01-23T18:18:46.734Z,-5.55
2019-01-23T18:21:15.999Z,-5.41
2019-01-23T18:23:45.107Z,-5.57
2019-01-23T18:26:14.034Z,-5.48
2019-01-23T18:28:42.932Z,-5.60
2019-01-23T18:31:38.665Z,-5.62
2019-01-23T18:34:40.051Z,-5.54
2019-01-23T18:37:22.724Z,-5.60
2019-01-23T18:40:20.634Z,-5.83
2019-01-23T18:43:34.442Z,-5.78
2019-01-23T18:46:37.648Z,-5.75
2019-01-23T18:49:48.001Z,-5.83
2019-01-23T18:52:17.213Z,-5.68
2019-01-23T18:54:46.192Z,-5.79
2019-01-23T18:57:18.348Z,-5.70
2019-01-23T18:59:47.310Z,-5.75
2019-01-23T19:02:16.178Z,-5.73
2019-01-23T19:04:45.400Z,-5.69
2019-01-23T19:07:14.267Z,-5.76
2019-01-23T19:09:43.310Z,-5.83
2019-01-23T19:12:12.283Z,-6.05
2019-01-23T19:14:41.159Z,-5.97
2019-01-23T19:17:10.324Z,-5.89
2019-01-23T19:19:39.245Z,-5.99
2019-01-23T19:22:08.422Z,-5.94
2019-01-23T19:24:37.718Z,-6.02
2019-01-23T19:27:06.709Z,-5.89
2019-01-23T19:29:35.740Z,-5.93
2019-01-23T19:32:04.827Z,-6.20
2019-01-23T19:34:33.786Z,-6.01
2019-01-23T19:37:02.657Z,-6.00
2019-01-23T19:39:31.527Z,-5.99
2019-01-23T19:42:00.390Z,-6.12
2019-01-23T19:44:29.180Z,-6.06
2019-01-23T19:46:58.121Z,-6.18
2019-01-23T19:49:27.492Z,-6.33
2019-01-23T19:51:56.570Z,-6.19
2019-01-23T19:54:27.222Z,-6.14
2019-01-23T19:56:56.601Z,-6.15
2019-01-23T19:59:26.505Z,-6.19
2019-01-23T20:01:55.472Z,-6.07
2019-01-23T20:04:24.341Z,-6.19
2019-01-23T20:06:53.664Z,-6.17
2019-01-23T20:09:22.540Z,-6.24
2019-01-23T20:11:51.434Z,-6.28
2019-01-23T20:14:20.389Z,-6.30
2019-01-23T20:16:50.093Z,-6.29
2019-01-23T20:19:18.869Z,-6.29
2019-01-23T20:21:47.777Z,-6.24
2019-01-23T20:24:16.739Z,-6.30
2019-01-23T20:26:45.883Z,-6.52
2019-01-23T20:29:14.752Z,-6.46
2019-01-23T20:31:43.579Z,-6.46
2019-01-23T20:34:12.885Z,-6.44
2019-01-23T20:37:03.033Z,-6.47
2019-01-23T20:39:31.855Z,-6.49
2019-01-23T20:42:00.670Z,-6.80
2019-01-23T20:44:29.741Z,-6.77
2019-01-23T20:46:59.121Z,-6.67
2019-01-23T20:49:28.243Z,-6.75
2019-01-23T20:51:57.109Z,-6.69
2019-01-23T20:54:26.008Z,-6.68
2019-01-23T20:56:55.066Z,-6.72
2019-01-23T20:59:24.294Z,-6.77
2019-01-23T21:01:53.398Z,-6.84
2019-01-23T21:04:22.230Z,-6.71
2019-01-23T21:06:51.141Z,-6.70
2019-01-23T21:09:19.940Z,-6.68
2019-01-23T21:11:49.063Z,-6.88
2019-01-23T21:14:17.943Z,-6.87
2019-01-23T21:16:46.737Z,-6.95
2019-01-23T21:19:15.511Z,-6.92
2019-01-23T21:21:44.622Z,-6.90
2019-01-23T21:24:13.416Z,-6.90
2019-01-23T21:26:42.327Z,-6.94
2019-01-23T21:29:11.219Z,-6.87
2019-01-23T21:31:40.263Z,-7.04
2019-01-23T21:34:09.599Z,-7.03
2019-01-23T21:36:38.490Z,-6.95
2019-01-23T21:39:37.148Z,-7.02
2019-01-23T21:42:06.279Z,-6.97
2019-01-23T21:44:35.105Z,-6.90
2019-01-23T21:47:04.373Z,-6.77
2019-01-23T21:49:33.228Z,-6.77
2019-01-23T21:52:02.143Z,-6.72
2019-01-23T21:54:38.789Z,-6.54
2019-01-23T21:57:07.640Z,-6.44
2019-01-23T21:59:36.468Z,-6.38
2019-01-23T22:02:05.925Z,-6.36
2019-01-23T22:04:35.028Z,-6.30
2019-01-23T22:07:03.912Z,-6.22
2019-01-23T22:09:32.949Z,-6.36
2019-01-23T22:12:01.918Z,-6.34
2019-01-23T22:14:31.128Z,-6.47
2019-01-23T22:17:00.287Z,-6.60
2019-01-23T22:19:29.399Z,-6.50
2019-01-23T22:21:58.248Z,-6.48
2019-01-23T22:24:27.389Z,-6.45
2019-01-23T22:26:56.306Z,-6.46
2019-01-23T22:29:25.269Z,-6.59
2019-01-23T22:31:54.674Z,-6.60
2019-01-23T22:34:23.657Z,-6.53
2019-01-23T22:36:57.119Z,-6.67
2019-01-23T22:39:28.618Z,-6.44
2019-01-23T22:42:12.406Z,-6.49
2019-01-23T23:01:30.848Z,-6.53
2019-01-23T23:04:03.373Z,-6.59
2019-01-23T23:06:31.551Z,-6.41
2019-01-23T23:09:00.359Z,-6.36
2019-01-23T23:11:29.181Z,-6.42
2019-01-23T23:13:57.978Z,-6.52
2019-01-23T23:16:26.796Z,-6.47
2019-01-23T23:18:55.600Z,-6.31
2019-01-23T23:21:24.458Z,-6.48
2019-01-23T23:23:53.224Z,-6.48
2019-01-23T23:26:22.035Z,-6.52
2019-01-23T23:28:50.840Z,-6.34
2019-01-23T23:31:19.820Z,-6.32
2019-01-23T23:33:48.624Z,-6.49
2019-01-23T23:36:17.441Z,-6.38
2019-01-23T23:38:46.228Z,-6.42
2019-01-23T23:41:15.078Z,-6.46
2019-01-23T23:43:44.235Z,-6.43
2019-01-23T23:46:13.648Z,-6.46
2019-01-23T23:48:42.448Z,-6.33
2019-01-23T23:51:11.391Z,-6.44
2019-01-23T23:53:40.171Z,-6.42
2019-01-23T23:56:08.978Z,-6.24
2019-01-23T23:58:37.781Z,-6.30
